sensor_id;sensor_type;location;lat;lon;timestamp;P1;durP1;ratioP1;P2;durP2;ratioP2
18391;SDS011;9322;50.932;5.318;2022-07-10T00:00:30;9.80;;;2.30;;
18391;SDS011;9322;50.932;5.318;2022-07-10T00:02:59;11.00;;;2.10;;
18391;SDS011;9322;50.932;5.318;2022-07-10T00:05:25;5.77;;;1.90;;
18391;SDS011;9322;50.932;5.318;2022-07-10T00:07:51;7.80;;;1.90;;
18391;SDS011;9322;50.932;5.318;2022-07-10T00:10:17;12.63;;;2.73;;
18391;SDS011;9322;50.932;5.318;2022-07-10T00:12:45;7.80;;;2.23;;
18391;SDS011;9322;50.932;5.318;2022-07-10T00:15:11;9.53;;;2.13;;
18391;SDS011;9322;50.932;5.318;2022-07-10T00:17:38;5.73;;;1.77;;
18391;SDS011;9322;50.932;5.318;2022-07-10T00:20:04;8.40;;;2.07;;
18391;SDS011;9322;50.932;5.318;2022-07-10T00:22:33;7.43;;;2.00;;
18391;SDS011;9322;50.932;5.318;2022-07-10T00:25:03;6.03;;;1.90;;
18391;SDS011;9322;50.932;5.318;2022-07-10T00:27:30;5.60;;;1.90;;
18391;SDS011;9322;50.932;5.318;2022-07-10T00:29:56;9.03;;;2.20;;
18391;SDS011;9322;50.932;5.318;2022-07-10T00:32:22;7.40;;;2.20;;
18391;SDS011;9322;50.932;5.318;2022-07-10T00:34:47;5.83;;;1.90;;
18391;SDS011;9322;50.932;5.318;2022-07-10T00:37:13;6.93;;;1.83;;
18391;SDS011;9322;50.932;5.318;2022-07-10T00:39:39;8.07;;;2.10;;
18391;SDS011;9322;50.932;5.318;2022-07-10T00:42:11;7.80;;;2.20;;
18391;SDS011;9322;50.932;5.318;2022-07-10T00:44:41;5.47;;;2.17;;
18391;SDS011;9322;50.932;5.318;2022-07-10T00:47:08;5.83;;;2.00;;
18391;SDS011;9322;50.932;5.318;2022-07-10T00:49:34;5.90;;;1.93;;
18391;SDS011;9322;50.932;5.318;2022-07-10T00:52:02;8.90;;;2.30;;
18391;SDS011;9322;50.932;5.318;2022-07-10T00:54:30;9.83;;;2.30;;
18391;SDS011;9322;50.932;5.318;2022-07-10T00:56:57;10.53;;;2.30;;
18391;SDS011;9322;50.932;5.318;2022-07-10T00:59:23;7.23;;;2.17;;
18391;SDS011;9322;50.932;5.318;2022-07-10T01:01:50;12.73;;;2.03;;
18391;SDS011;9322;50.932;5.318;2022-07-10T01:04:17;9.43;;;2.27;;
18391;SDS011;9322;50.932;5.318;2022-07-10T01:06:43;9.47;;;2.03;;
18391;SDS011;9322;50.932;5.318;2022-07-10T01:09:08;9.90;;;2.20;;
18391;SDS011;9322;50.932;5.318;2022-07-10T01:11:34;7.63;;;1.90;;
18391;SDS011;9322;50.932;5.318;2022-07-10T01:14:02;5.57;;;2.30;;
18391;SDS011;9322;50.932;5.318;2022-07-10T01:16:28;12.47;;;1.83;;
18391;SDS011;9322;50.932;5.318;2022-07-10T01:18:55;6.60;;;2.20;;
18391;SDS011;9322;50.932;5.318;2022-07-10T01:21:28;6.77;;;1.90;;
18391;SDS011;9322;50.932;5.318;2022-07-10T01:23:56;6.00;;;1.80;;
18391;SDS011;9322;50.932;5.318;2022-07-10T01:26:22;10.87;;;1.93;;
18391;SDS011;9322;50.932;5.318;2022-07-10T01:28:52;10.57;;;2.20;;
18391;SDS011;9322;50.932;5.318;2022-07-10T01:31:19;7.23;;;1.80;;
18391;SDS011;9322;50.932;5.318;2022-07-10T01:33:49;5.80;;;1.80;;
18391;SDS011;9322;50.932;5.318;2022-07-10T01:36:15;13.53;;;2.00;;
18391;SDS011;9322;50.932;5.318;2022-07-10T01:38:41;9.33;;;2.37;;
18391;SDS011;9322;50.932;5.318;2022-07-10T01:41:08;8.47;;;2.10;;
18391;SDS011;9322;50.932;5.318;2022-07-10T01:43:37;7.83;;;2.03;;
18391;SDS011;9322;50.932;5.318;2022-07-10T01:46:03;5.80;;;2.00;;
18391;SDS011;9322;50.932;5.318;2022-07-10T01:48:29;6.10;;;1.53;;
18391;SDS011;9322;50.932;5.318;2022-07-10T01:50:55;4.53;;;1.70;;
18391;SDS011;9322;50.932;5.318;2022-07-10T01:53:21;7.80;;;2.27;;
18391;SDS011;9322;50.932;5.318;2022-07-10T01:55:47;7.67;;;2.30;;
18391;SDS011;9322;50.932;5.318;2022-07-10T01:58:13;6.20;;;2.17;;
18391;SDS011;9322;50.932;5.318;2022-07-10T02:00:39;8.70;;;2.57;;
18391;SDS011;9322;50.932;5.318;2022-07-10T02:03:05;7.93;;;2.23;;
18391;SDS011;9322;50.932;5.318;2022-07-10T02:05:49;8.37;;;2.30;;
18391;SDS011;9322;50.932;5.318;2022-07-10T02:08:15;6.20;;;2.27;;
18391;SDS011;9322;50.932;5.318;2022-07-10T02:10:40;5.20;;;2.00;;
18391;SDS011;9322;50.932;5.318;2022-07-10T02:13:06;6.73;;;2.17;;
18391;SDS011;9322;50.932;5.318;2022-07-10T02:15:32;6.47;;;2.53;;
18391;SDS011;9322;50.932;5.318;2022-07-10T02:17:57;5.33;;;2.37;;
18391;SDS011;9322;50.932;5.318;2022-07-10T02:20:24;7.47;;;2.73;;
18391;SDS011;9322;50.932;5.318;2022-07-10T02:22:49;11.53;;;2.67;;
18391;SDS011;9322;50.932;5.318;2022-07-10T02:25:15;7.33;;;2.40;;
18391;SDS011;9322;50.932;5.318;2022-07-10T02:27:41;8.20;;;2.23;;
18391;SDS011;9322;50.932;5.318;2022-07-10T02:30:06;8.83;;;2.70;;
18391;SDS011;9322;50.932;5.318;2022-07-10T02:32:32;5.87;;;2.53;;
18391;SDS011;9322;50.932;5.318;2022-07-10T02:34:58;9.97;;;2.77;;
18391;SDS011;9322;50.932;5.318;2022-07-10T02:37:24;9.83;;;2.40;;
18391;SDS011;9322;50.932;5.318;2022-07-10T02:39:50;12.10;;;2.87;;
18391;SDS011;9322;50.932;5.318;2022-07-10T02:42:16;7.23;;;3.10;;
18391;SDS011;9322;50.932;5.318;2022-07-10T02:44:41;8.13;;;2.80;;
18391;SDS011;9322;50.932;5.318;2022-07-10T02:47:07;12.80;;;2.93;;
18391;SDS011;9322;50.932;5.318;2022-07-10T02:49:32;7.87;;;2.90;;
18391;SDS011;9322;50.932;5.318;2022-07-10T02:51:58;8.80;;;2.80;;
18391;SDS011;9322;50.932;5.318;2022-07-10T02:54:24;9.70;;;3.27;;
18391;SDS011;9322;50.932;5.318;2022-07-10T02:56:50;17.27;;;3.33;;
18391;SDS011;9322;50.932;5.318;2022-07-10T02:59:16;9.47;;;3.37;;
18391;SDS011;9322;50.932;5.318;2022-07-10T03:01:43;10.03;;;3.23;;
18391;SDS011;9322;50.932;5.318;2022-07-10T03:04:09;11.53;;;3.63;;
18391;SDS011;9322;50.932;5.318;2022-07-10T03:06:34;8.17;;;3.53;;
18391;SDS011;9322;50.932;5.318;2022-07-10T03:09:00;10.77;;;3.40;;
18391;SDS011;9322;50.932;5.318;2022-07-10T03:11:26;6.83;;;3.33;;
18391;SDS011;9322;50.932;5.318;2022-07-10T03:13:52;14.97;;;3.50;;
18391;SDS011;9322;50.932;5.318;2022-07-10T03:16:17;6.93;;;3.20;;
18391;SDS011;9322;50.932;5.318;2022-07-10T03:18:43;12.27;;;3.63;;
18391;SDS011;9322;50.932;5.318;2022-07-10T03:21:10;10.27;;;4.03;;
18391;SDS011;9322;50.932;5.318;2022-07-10T03:23:36;6.63;;;3.40;;
18391;SDS011;9322;50.932;5.318;2022-07-10T03:26:04;13.93;;;4.23;;
18391;SDS011;9322;50.932;5.318;2022-07-10T03:28:30;8.37;;;3.83;;
18391;SDS011;9322;50.932;5.318;2022-07-10T03:30:56;11.40;;;3.80;;
18391;SDS011;9322;50.932;5.318;2022-07-10T03:33:22;12.53;;;3.80;;
18391;SDS011;9322;50.932;5.318;2022-07-10T03:35:48;10.03;;;3.50;;
18391;SDS011;9322;50.932;5.318;2022-07-10T03:38:14;8.57;;;3.70;;
18391;SDS011;9322;50.932;5.318;2022-07-10T03:40:40;14.40;;;4.27;;
18391;SDS011;9322;50.932;5.318;2022-07-10T03:43:05;14.00;;;4.10;;
18391;SDS011;9322;50.932;5.318;2022-07-10T03:45:31;17.90;;;4.17;;
18391;SDS011;9322;50.932;5.318;2022-07-10T03:47:57;11.20;;;3.90;;
18391;SDS011;9322;50.932;5.318;2022-07-10T03:50:22;14.37;;;3.90;;
18391;SDS011;9322;50.932;5.318;2022-07-10T03:52:48;11.27;;;4.07;;
18391;SDS011;9322;50.932;5.318;2022-07-10T03:55:14;11.17;;;4.13;;
18391;SDS011;9322;50.932;5.318;2022-07-10T03:57:40;8.73;;;3.80;;
18391;SDS011;9322;50.932;5.318;2022-07-10T04:00:24;14.13;;;4.17;;
18391;SDS011;9322;50.932;5.318;2022-07-10T04:02:58;7.77;;;4.07;;
18391;SDS011;9322;50.932;5.318;2022-07-10T04:05:25;11.00;;;3.97;;
18391;SDS011;9322;50.932;5.318;2022-07-10T04:07:52;10.00;;;3.90;;
18391;SDS011;9322;50.932;5.318;2022-07-10T04:10:18;11.57;;;4.53;;
18391;SDS011;9322;50.932;5.318;2022-07-10T04:12:44;11.50;;;4.00;;
18391;SDS011;9322;50.932;5.318;2022-07-10T04:15:10;8.90;;;3.90;;
18391;SDS011;9322;50.932;5.318;2022-07-10T04:17:36;13.23;;;4.23;;
18391;SDS011;9322;50.932;5.318;2022-07-10T04:20:02;13.47;;;4.07;;
18391;SDS011;9322;50.932;5.318;2022-07-10T04:22:28;13.80;;;3.83;;
18391;SDS011;9322;50.932;5.318;2022-07-10T04:24:54;7.73;;;3.97;;
18391;SDS011;9322;50.932;5.318;2022-07-10T04:27:20;9.20;;;3.70;;
18391;SDS011;9322;50.932;5.318;2022-07-10T04:29:46;10.57;;;3.67;;
18391;SDS011;9322;50.932;5.318;2022-07-10T04:32:12;11.03;;;3.77;;
18391;SDS011;9322;50.932;5.318;2022-07-10T04:34:39;13.93;;;3.30;;
18391;SDS011;9322;50.932;5.318;2022-07-10T04:37:05;9.90;;;3.63;;
18391;SDS011;9322;50.932;5.318;2022-07-10T04:39:32;7.73;;;3.63;;
18391;SDS011;9322;50.932;5.318;2022-07-10T04:41:59;8.27;;;3.53;;
18391;SDS011;9322;50.932;5.318;2022-07-10T04:44:26;12.73;;;3.37;;
18391;SDS011;9322;50.932;5.318;2022-07-10T04:46:52;12.87;;;3.83;;
18391;SDS011;9322;50.932;5.318;2022-07-10T04:49:18;9.70;;;3.60;;
18391;SDS011;9322;50.932;5.318;2022-07-10T04:51:44;7.67;;;3.37;;
18391;SDS011;9322;50.932;5.318;2022-07-10T04:54:10;6.87;;;3.60;;
18391;SDS011;9322;50.932;5.318;2022-07-10T04:56:35;8.07;;;3.80;;
18391;SDS011;9322;50.932;5.318;2022-07-10T04:59:01;9.53;;;3.60;;
18391;SDS011;9322;50.932;5.318;2022-07-10T05:01:27;7.87;;;3.83;;
18391;SDS011;9322;50.932;5.318;2022-07-10T05:03:53;8.63;;;3.37;;
18391;SDS011;9322;50.932;5.318;2022-07-10T05:06:19;7.70;;;3.50;;
18391;SDS011;9322;50.932;5.318;2022-07-10T05:08:44;6.50;;;3.00;;
18391;SDS011;9322;50.932;5.318;2022-07-10T05:11:10;9.50;;;3.07;;
18391;SDS011;9322;50.932;5.318;2022-07-10T05:13:36;8.70;;;3.33;;
18391;SDS011;9322;50.932;5.318;2022-07-10T05:16:02;13.87;;;3.07;;
18391;SDS011;9322;50.932;5.318;2022-07-10T05:18:29;8.87;;;3.00;;
18391;SDS011;9322;50.932;5.318;2022-07-10T05:20:55;13.20;;;3.33;;
18391;SDS011;9322;50.932;5.318;2022-07-10T05:23:20;7.50;;;3.30;;
18391;SDS011;9322;50.932;5.318;2022-07-10T05:25:46;8.83;;;3.50;;
18391;SDS011;9322;50.932;5.318;2022-07-10T05:28:12;9.90;;;3.43;;
18391;SDS011;9322;50.932;5.318;2022-07-10T05:30:39;15.07;;;3.43;;
18391;SDS011;9322;50.932;5.318;2022-07-10T05:33:05;6.13;;;3.00;;
18391;SDS011;9322;50.932;5.318;2022-07-10T05:35:31;8.87;;;3.33;;
18391;SDS011;9322;50.932;5.318;2022-07-10T05:37:57;10.27;;;3.70;;
18391;SDS011;9322;50.932;5.318;2022-07-10T05:40:23;7.50;;;3.10;;
18391;SDS011;9322;50.932;5.318;2022-07-10T05:42:49;14.90;;;3.40;;
18391;SDS011;9322;50.932;5.318;2022-07-10T05:45:14;11.60;;;3.40;;
18391;SDS011;9322;50.932;5.318;2022-07-10T05:47:40;10.27;;;3.60;;
18391;SDS011;9322;50.932;5.318;2022-07-10T05:50:06;9.43;;;3.27;;
18391;SDS011;9322;50.932;5.318;2022-07-10T05:52:32;9.70;;;3.50;;
18391;SDS011;9322;50.932;5.318;2022-07-10T05:54:58;16.03;;;3.80;;
18391;SDS011;9322;50.932;5.318;2022-07-10T05:57:24;10.40;;;3.23;;
18391;SDS011;9322;50.932;5.318;2022-07-10T05:59:50;14.80;;;3.10;;
18391;SDS011;9322;50.932;5.318;2022-07-10T06:02:16;11.77;;;3.07;;
18391;SDS011;9322;50.932;5.318;2022-07-10T06:04:42;13.73;;;3.70;;
18391;SDS011;9322;50.932;5.318;2022-07-10T06:07:07;12.50;;;3.07;;
18391;SDS011;9322;50.932;5.318;2022-07-10T06:09:34;8.93;;;3.20;;
18391;SDS011;9322;50.932;5.318;2022-07-10T06:11:59;7.60;;;3.37;;
18391;SDS011;9322;50.932;5.318;2022-07-10T06:14:26;4.97;;;3.03;;
18391;SDS011;9322;50.932;5.318;2022-07-10T06:16:51;9.20;;;2.93;;
18391;SDS011;9322;50.932;5.318;2022-07-10T06:19:17;8.47;;;3.20;;
18391;SDS011;9322;50.932;5.318;2022-07-10T06:21:43;11.03;;;3.93;;
18391;SDS011;9322;50.932;5.318;2022-07-10T06:24:09;9.37;;;3.13;;
18391;SDS011;9322;50.932;5.318;2022-07-10T06:26:35;10.73;;;2.97;;
18391;SDS011;9322;50.932;5.318;2022-07-10T06:29:01;9.70;;;2.50;;
18391;SDS011;9322;50.932;5.318;2022-07-10T06:31:27;12.35;;;3.15;;
18391;SDS011;9322;50.932;5.318;2022-07-10T06:33:54;10.73;;;2.00;;
18391;SDS011;9322;50.932;5.318;2022-07-10T06:36:22;9.23;;;2.38;;
18391;SDS011;9322;50.932;5.318;2022-07-10T06:38:48;6.45;;;2.08;;
18391;SDS011;9322;50.932;5.318;2022-07-10T06:41:13;5.28;;;2.05;;
18391;SDS011;9322;50.932;5.318;2022-07-10T06:43:39;7.07;;;2.38;;
18391;SDS011;9322;50.932;5.318;2022-07-10T06:46:05;7.72;;;2.15;;
18391;SDS011;9322;50.932;5.318;2022-07-10T06:48:30;7.00;;;1.83;;
18391;SDS011;9322;50.932;5.318;2022-07-10T06:50:57;7.05;;;1.85;;
18391;SDS011;9322;50.932;5.318;2022-07-10T06:53:23;8.18;;;1.85;;
18391;SDS011;9322;50.932;5.318;2022-07-10T06:55:52;7.20;;;1.90;;
18391;SDS011;9322;50.932;5.318;2022-07-10T06:58:18;11.57;;;1.90;;
18391;SDS011;9322;50.932;5.318;2022-07-10T07:00:44;6.20;;;1.77;;
18391;SDS011;9322;50.932;5.318;2022-07-10T07:03:10;4.57;;;1.70;;
18391;SDS011;9322;50.932;5.318;2022-07-10T07:05:35;3.78;;;1.90;;
18391;SDS011;9322;50.932;5.318;2022-07-10T07:08:01;8.95;;;1.80;;
18391;SDS011;9322;50.932;5.318;2022-07-10T07:10:27;4.13;;;1.40;;
18391;SDS011;9322;50.932;5.318;2022-07-10T07:12:52;6.43;;;1.73;;
18391;SDS011;9322;50.932;5.318;2022-07-10T07:15:18;6.55;;;1.52;;
18391;SDS011;9322;50.932;5.318;2022-07-10T07:17:47;8.13;;;1.60;;
18391;SDS011;9322;50.932;5.318;2022-07-10T07:20:23;3.67;;;1.10;;
18391;SDS011;9322;50.932;5.318;2022-07-10T07:23:08;4.55;;;1.38;;
18391;SDS011;9322;50.932;5.318;2022-07-10T07:25:39;4.13;;;1.48;;
18391;SDS011;9322;50.932;5.318;2022-07-10T07:28:11;5.57;;;1.60;;
18391;SDS011;9322;50.932;5.318;2022-07-10T07:30:37;9.23;;;1.60;;
18391;SDS011;9322;50.932;5.318;2022-07-10T07:33:03;7.47;;;1.60;;
18391;SDS011;9322;50.932;5.318;2022-07-10T07:35:29;3.60;;;1.13;;
18391;SDS011;9322;50.932;5.318;2022-07-10T07:37:55;5.65;;;1.42;;
18391;SDS011;9322;50.932;5.318;2022-07-10T07:40:21;5.60;;;1.60;;
18391;SDS011;9322;50.932;5.318;2022-07-10T07:42:54;5.78;;;1.38;;
18391;SDS011;9322;50.932;5.318;2022-07-10T07:45:23;5.38;;;1.30;;
18391;SDS011;9322;50.932;5.318;2022-07-10T07:47:54;8.30;;;1.73;;
18391;SDS011;9322;50.932;5.318;2022-07-10T07:50:21;3.22;;;1.23;;
18391;SDS011;9322;50.932;5.318;2022-07-10T07:52:53;4.35;;;1.63;;
18391;SDS011;9322;50.932;5.318;2022-07-10T07:55:20;4.50;;;1.20;;
18391;SDS011;9322;50.932;5.318;2022-07-10T07:57:46;5.55;;;1.30;;
18391;SDS011;9322;50.932;5.318;2022-07-10T08:00:13;4.63;;;1.27;;
18391;SDS011;9322;50.932;5.318;2022-07-10T08:02:42;4.95;;;1.30;;
18391;SDS011;9322;50.932;5.318;2022-07-10T08:05:08;6.47;;;1.30;;
18391;SDS011;9322;50.932;5.318;2022-07-10T08:07:38;2.35;;;1.10;;
18391;SDS011;9322;50.932;5.318;2022-07-10T08:10:07;9.93;;;1.38;;
18391;SDS011;9322;50.932;5.318;2022-07-10T08:12:34;6.60;;;1.30;;
18391;SDS011;9322;50.932;5.318;2022-07-10T08:15:00;5.78;;;1.40;;
18391;SDS011;9322;50.932;5.318;2022-07-10T08:17:27;3.15;;;1.10;;
18391;SDS011;9322;50.932;5.318;2022-07-10T08:19:53;12.55;;;1.50;;
18391;SDS011;9322;50.932;5.318;2022-07-10T08:22:19;4.07;;;1.40;;
18391;SDS011;9322;50.932;5.318;2022-07-10T08:24:45;3.70;;;1.33;;
18391;SDS011;9322;50.932;5.318;2022-07-10T08:27:10;5.90;;;1.60;;
18391;SDS011;9322;50.932;5.318;2022-07-10T08:29:37;5.00;;;1.45;;
18391;SDS011;9322;50.932;5.318;2022-07-10T08:32:03;4.43;;;1.25;;
18391;SDS011;9322;50.932;5.318;2022-07-10T08:34:29;7.75;;;1.58;;
18391;SDS011;9322;50.932;5.318;2022-07-10T08:36:56;3.95;;;1.50;;
18391;SDS011;9322;50.932;5.318;2022-07-10T08:39:22;4.07;;;1.40;;
18391;SDS011;9322;50.932;5.318;2022-07-10T08:41:48;8.55;;;1.50;;
18391;SDS011;9322;50.932;5.318;2022-07-10T08:44:17;4.60;;;1.27;;
18391;SDS011;9322;50.932;5.318;2022-07-10T08:46:43;6.55;;;1.02;;
18391;SDS011;9322;50.932;5.318;2022-07-10T08:49:09;5.68;;;1.17;;
18391;SDS011;9322;50.932;5.318;2022-07-10T08:51:58;2.65;;;1.08;;
18391;SDS011;9322;50.932;5.318;2022-07-10T08:54:28;3.60;;;1.20;;
18391;SDS011;9322;50.932;5.318;2022-07-10T08:56:58;5.10;;;1.30;;
18391;SDS011;9322;50.932;5.318;2022-07-10T08:59:24;5.68;;;1.30;;
18391;SDS011;9322;50.932;5.318;2022-07-10T09:01:50;5.45;;;1.48;;
18391;SDS011;9322;50.932;5.318;2022-07-10T09:04:25;6.30;;;1.20;;
18391;SDS011;9322;50.932;5.318;2022-07-10T09:06:52;4.75;;;1.20;;
18391;SDS011;9322;50.932;5.318;2022-07-10T09:09:19;6.10;;;1.50;;
18391;SDS011;9322;50.932;5.318;2022-07-10T09:11:45;7.18;;;1.30;;
18391;SDS011;9322;50.932;5.318;2022-07-10T09:14:13;5.88;;;1.70;;
18391;SDS011;9322;50.932;5.318;2022-07-10T09:16:40;4.82;;;1.33;;
18391;SDS011;9322;50.932;5.318;2022-07-10T09:19:21;5.97;;;1.20;;
18391;SDS011;9322;50.932;5.318;2022-07-10T09:21:55;5.15;;;1.25;;
18391;SDS011;9322;50.932;5.318;2022-07-10T09:24:36;7.07;;;1.55;;
18391;SDS011;9322;50.932;5.318;2022-07-10T09:27:06;4.65;;;1.38;;
18391;SDS011;9322;50.932;5.318;2022-07-10T09:29:32;5.82;;;1.65;;
18391;SDS011;9322;50.932;5.318;2022-07-10T09:32:13;5.72;;;1.10;;
18391;SDS011;9322;50.932;5.318;2022-07-10T09:34:41;5.95;;;1.50;;
18391;SDS011;9322;50.932;5.318;2022-07-10T09:37:18;7.28;;;1.30;;
18391;SDS011;9322;50.932;5.318;2022-07-10T09:40:05;6.90;;;1.58;;
18391;SDS011;9322;50.932;5.318;2022-07-10T09:42:34;4.90;;;1.55;;
18391;SDS011;9322;50.932;5.318;2022-07-10T09:47:45;3.55;;;1.30;;
18391;SDS011;9322;50.932;5.318;2022-07-10T09:52:52;6.03;;;1.60;;
18391;SDS011;9322;50.932;5.318;2022-07-10T09:55:21;8.82;;;1.90;;
18391;SDS011;9322;50.932;5.318;2022-07-10T09:57:54;6.53;;;1.50;;
18391;SDS011;9322;50.932;5.318;2022-07-10T10:00:29;4.38;;;1.33;;
18391;SDS011;9322;50.932;5.318;2022-07-10T10:03:14;6.35;;;1.67;;
18391;SDS011;9322;50.932;5.318;2022-07-10T10:05:44;5.22;;;1.38;;
18391;SDS011;9322;50.932;5.318;2022-07-10T10:10:50;3.33;;;1.38;;
18391;SDS011;9322;50.932;5.318;2022-07-10T10:13:20;8.52;;;1.67;;
18391;SDS011;9322;50.932;5.318;2022-07-10T10:15:51;5.55;;;1.40;;
18391;SDS011;9322;50.932;5.318;2022-07-10T10:18:20;5.53;;;1.50;;
18391;SDS011;9322;50.932;5.318;2022-07-10T10:20:47;2.65;;;1.20;;
18391;SDS011;9322;50.932;5.318;2022-07-10T10:23:15;6.88;;;1.42;;
18391;SDS011;9322;50.932;5.318;2022-07-10T10:25:43;4.25;;;1.55;;
18391;SDS011;9322;50.932;5.318;2022-07-10T10:28:09;6.75;;;1.60;;
18391;SDS011;9322;50.932;5.318;2022-07-10T10:30:37;5.30;;;1.58;;
18391;SDS011;9322;50.932;5.318;2022-07-10T10:33:23;4.38;;;1.10;;
18391;SDS011;9322;50.932;5.318;2022-07-10T10:35:55;6.28;;;1.52;;
18391;SDS011;9322;50.932;5.318;2022-07-10T10:38:21;4.20;;;1.33;;
18391;SDS011;9322;50.932;5.318;2022-07-10T10:40:48;4.03;;;1.55;;
18391;SDS011;9322;50.932;5.318;2022-07-10T10:43:18;6.60;;;1.35;;
18391;SDS011;9322;50.932;5.318;2022-07-10T10:45:45;5.22;;;1.20;;
18391;SDS011;9322;50.932;5.318;2022-07-10T10:48:15;5.50;;;1.50;;
18391;SDS011;9322;50.932;5.318;2022-07-10T10:53:12;5.80;;;1.40;;
18391;SDS011;9322;50.932;5.318;2022-07-10T10:55:41;5.50;;;1.23;;
18391;SDS011;9322;50.932;5.318;2022-07-10T10:58:44;4.05;;;1.38;;
18391;SDS011;9322;50.932;5.318;2022-07-10T11:09:20;6.03;;;1.60;;
18391;SDS011;9322;50.932;5.318;2022-07-10T11:14:29;4.30;;;1.60;;
18391;SDS011;9322;50.932;5.318;2022-07-10T11:16:56;4.50;;;1.48;;
18391;SDS011;9322;50.932;5.318;2022-07-10T11:19:22;4.60;;;1.58;;
18391;SDS011;9322;50.932;5.318;2022-07-10T11:30:43;6.30;;;1.30;;
18391;SDS011;9322;50.932;5.318;2022-07-10T11:33:14;4.53;;;1.40;;
18391;SDS011;9322;50.932;5.318;2022-07-10T11:35:43;5.15;;;1.60;;
18391;SDS011;9322;50.932;5.318;2022-07-10T11:38:11;7.28;;;1.80;;
18391;SDS011;9322;50.932;5.318;2022-07-10T11:40:36;3.55;;;1.45;;
18391;SDS011;9322;50.932;5.318;2022-07-10T11:43:03;5.30;;;1.63;;
18391;SDS011;9322;50.932;5.318;2022-07-10T11:45:32;7.45;;;2.00;;
18391;SDS011;9322;50.932;5.318;2022-07-10T11:48:01;3.60;;;1.60;;
18391;SDS011;9322;50.932;5.318;2022-07-10T11:50:34;4.35;;;1.85;;
18391;SDS011;9322;50.932;5.318;2022-07-10T11:53:02;3.95;;;1.60;;
18391;SDS011;9322;50.932;5.318;2022-07-10T11:55:28;5.50;;;2.10;;
18391;SDS011;9322;50.932;5.318;2022-07-10T11:57:56;3.30;;;1.58;;
18391;SDS011;9322;50.932;5.318;2022-07-10T12:00:26;6.03;;;2.00;;
18391;SDS011;9322;50.932;5.318;2022-07-10T12:02:55;7.50;;;1.77;;
18391;SDS011;9322;50.932;5.318;2022-07-10T12:05:40;4.40;;;2.08;;
18391;SDS011;9322;50.932;5.318;2022-07-10T12:08:06;4.38;;;1.95;;
18391;SDS011;9322;50.932;5.318;2022-07-10T12:10:33;4.40;;;1.98;;
18391;SDS011;9322;50.932;5.318;2022-07-10T12:13:09;7.30;;;2.30;;
18391;SDS011;9322;50.932;5.318;2022-07-10T12:15:40;4.57;;;2.35;;
18391;SDS011;9322;50.932;5.318;2022-07-10T12:18:17;8.63;;;2.38;;
18391;SDS011;9322;50.932;5.318;2022-07-10T12:20:46;4.53;;;2.20;;
18391;SDS011;9322;50.932;5.318;2022-07-10T12:23:16;4.00;;;2.13;;
18391;SDS011;9322;50.932;5.318;2022-07-10T12:25:42;5.30;;;2.25;;
18391;SDS011;9322;50.932;5.318;2022-07-10T12:28:09;4.25;;;2.22;;
18391;SDS011;9322;50.932;5.318;2022-07-10T12:30:39;6.68;;;2.28;;
18391;SDS011;9322;50.932;5.318;2022-07-10T12:33:06;6.07;;;2.13;;
18391;SDS011;9322;50.932;5.318;2022-07-10T12:35:47;8.27;;;2.40;;
18391;SDS011;9322;50.932;5.318;2022-07-10T12:38:23;5.22;;;2.40;;
18391;SDS011;9322;50.932;5.318;2022-07-10T12:43:33;7.90;;;2.53;;
18391;SDS011;9322;50.932;5.318;2022-07-10T12:46:12;4.68;;;2.13;;
18391;SDS011;9322;50.932;5.318;2022-07-10T12:48:43;6.57;;;2.28;;
18391;SDS011;9322;50.932;5.318;2022-07-10T12:51:26;9.13;;;2.65;;
18391;SDS011;9322;50.932;5.318;2022-07-10T12:53:53;5.53;;;2.22;;
18391;SDS011;9322;50.932;5.318;2022-07-10T12:56:36;5.68;;;2.33;;
18391;SDS011;9322;50.932;5.318;2022-07-10T12:59:03;5.85;;;2.10;;
18391;SDS011;9322;50.932;5.318;2022-07-10T13:01:44;5.65;;;2.40;;
18391;SDS011;9322;50.932;5.318;2022-07-10T13:04:10;4.55;;;2.20;;
18391;SDS011;9322;50.932;5.318;2022-07-10T13:06:37;7.90;;;2.35;;
18391;SDS011;9322;50.932;5.318;2022-07-10T13:11:47;4.25;;;2.35;;
18391;SDS011;9322;50.932;5.318;2022-07-10T13:14:13;3.75;;;2.28;;
18391;SDS011;9322;50.932;5.318;2022-07-10T13:16:39;7.63;;;2.05;;
18391;SDS011;9322;50.932;5.318;2022-07-10T13:19:05;3.22;;;2.25;;
18391;SDS011;9322;50.932;5.318;2022-07-10T13:21:30;9.07;;;2.33;;
18391;SDS011;9322;50.932;5.318;2022-07-10T13:23:56;5.13;;;2.50;;
18391;SDS011;9322;50.932;5.318;2022-07-10T13:26:21;3.63;;;1.90;;
18391;SDS011;9322;50.932;5.318;2022-07-10T13:28:47;10.20;;;2.30;;
18391;SDS011;9322;50.932;5.318;2022-07-10T13:31:13;6.28;;;2.30;;
18391;SDS011;9322;50.932;5.318;2022-07-10T13:33:39;9.18;;;2.30;;
18391;SDS011;9322;50.932;5.318;2022-07-10T13:36:04;6.20;;;2.30;;
18391;SDS011;9322;50.932;5.318;2022-07-10T13:38:30;5.65;;;2.17;;
18391;SDS011;9322;50.932;5.318;2022-07-10T13:40:57;3.88;;;2.10;;
18391;SDS011;9322;50.932;5.318;2022-07-10T13:43:23;3.08;;;1.75;;
18391;SDS011;9322;50.932;5.318;2022-07-10T13:45:58;3.70;;;2.00;;
18391;SDS011;9322;50.932;5.318;2022-07-10T13:48:24;3.47;;;1.80;;
18391;SDS011;9322;50.932;5.318;2022-07-10T13:50:53;4.10;;;1.90;;
18391;SDS011;9322;50.932;5.318;2022-07-10T13:53:20;4.60;;;1.92;;
18391;SDS011;9322;50.932;5.318;2022-07-10T13:55:47;3.92;;;1.73;;
18391;SDS011;9322;50.932;5.318;2022-07-10T13:58:13;5.47;;;2.05;;
18391;SDS011;9322;50.932;5.318;2022-07-10T14:00:39;2.70;;;1.65;;
18391;SDS011;9322;50.932;5.318;2022-07-10T14:03:05;4.60;;;1.90;;
18391;SDS011;9322;50.932;5.318;2022-07-10T14:05:32;5.47;;;1.90;;
18391;SDS011;9322;50.932;5.318;2022-07-10T14:07:59;4.68;;;1.55;;
18391;SDS011;9322;50.932;5.318;2022-07-10T14:10:25;3.40;;;1.63;;
18391;SDS011;9322;50.932;5.318;2022-07-10T14:12:55;4.72;;;1.98;;
18391;SDS011;9322;50.932;5.318;2022-07-10T14:15:21;4.70;;;1.90;;
18391;SDS011;9322;50.932;5.318;2022-07-10T14:17:47;4.05;;;1.80;;
18391;SDS011;9322;50.932;5.318;2022-07-10T14:20:13;6.30;;;1.80;;
18391;SDS011;9322;50.932;5.318;2022-07-10T14:22:39;4.32;;;1.70;;
18391;SDS011;9322;50.932;5.318;2022-07-10T14:25:05;4.10;;;1.65;;
18391;SDS011;9322;50.932;5.318;2022-07-10T14:27:33;4.65;;;2.08;;
18391;SDS011;9322;50.932;5.318;2022-07-10T14:29:59;3.67;;;1.80;;
18391;SDS011;9322;50.932;5.318;2022-07-10T14:32:25;5.30;;;1.67;;
18391;SDS011;9322;50.932;5.318;2022-07-10T14:34:51;4.88;;;1.65;;
18391;SDS011;9322;50.932;5.318;2022-07-10T14:37:17;2.20;;;1.90;;
18391;SDS011;9322;50.932;5.318;2022-07-10T14:39:42;4.70;;;1.80;;
18391;SDS011;9322;50.932;5.318;2022-07-10T14:42:11;3.47;;;1.50;;
18391;SDS011;9322;50.932;5.318;2022-07-10T14:44:37;4.45;;;1.80;;
18391;SDS011;9322;50.932;5.318;2022-07-10T14:47:03;4.25;;;1.70;;
18391;SDS011;9322;50.932;5.318;2022-07-10T14:49:29;3.85;;;1.63;;
18391;SDS011;9322;50.932;5.318;2022-07-10T14:51:54;5.95;;;1.80;;
18391;SDS011;9322;50.932;5.318;2022-07-10T14:54:20;3.88;;;1.63;;
18391;SDS011;9322;50.932;5.318;2022-07-10T14:56:46;4.57;;;1.85;;
18391;SDS011;9322;50.932;5.318;2022-07-10T14:59:12;3.30;;;1.52;;
18391;SDS011;9322;50.932;5.318;2022-07-10T15:01:37;4.30;;;1.50;;
18391;SDS011;9322;50.932;5.318;2022-07-10T15:04:03;3.20;;;1.60;;
18391;SDS011;9322;50.932;5.318;2022-07-10T15:06:29;4.10;;;1.70;;
18391;SDS011;9322;50.932;5.318;2022-07-10T15:08:55;5.00;;;1.75;;
18391;SDS011;9322;50.932;5.318;2022-07-10T15:11:20;4.15;;;1.75;;
18391;SDS011;9322;50.932;5.318;2022-07-10T15:13:50;5.05;;;1.90;;
18391;SDS011;9322;50.932;5.318;2022-07-10T15:16:17;7.80;;;1.90;;
18391;SDS011;9322;50.932;5.318;2022-07-10T15:18:43;4.22;;;1.65;;
18391;SDS011;9322;50.932;5.318;2022-07-10T15:21:09;3.72;;;1.48;;
18391;SDS011;9322;50.932;5.318;2022-07-10T15:23:36;3.70;;;1.63;;
18391;SDS011;9322;50.932;5.318;2022-07-10T15:26:02;2.97;;;1.55;;
18391;SDS011;9322;50.932;5.318;2022-07-10T15:28:29;4.55;;;1.65;;
18391;SDS011;9322;50.932;5.318;2022-07-10T15:30:55;4.55;;;1.75;;
18391;SDS011;9322;50.932;5.318;2022-07-10T15:33:21;6.47;;;1.60;;
18391;SDS011;9322;50.932;5.318;2022-07-10T15:35:47;3.28;;;1.60;;
18391;SDS011;9322;50.932;5.318;2022-07-10T15:38:12;7.10;;;1.63;;